Meteo Giornale » Osservazioni meteo Canada » Trois Rivieres
ore: 03:00 - Osservazioni Meteo Trois Rivieres
Lat. 46° 21' N Lon. 72° 41' W Alt. 61 metri s.l.m.
9 °C
Sereno
Temp. 24 Ore
6 °C
22 °C
Nord
3.7 Km/h
Dew point 9 °C
Umidità 100 %
Visibilità 14 Km
Il sole sorge alle ore 06:11
Il sole tramonta alle ore 19:29
| Data e Ora | Cielo e Fenomeni | T °C | DP °C | Um. % | Pres. hPa | Vis. km | Vento km/h | |
|---|---|---|---|---|---|---|---|---|
| Oggi h: 03:00 | Sereno | 9 | 9 | 100 | 1018 | 14 | N 3.7 | |
| Oggi h: 02:00 | Sereno | 11 | 10 | 93 | 1018 | 14 | N 0 | |
| Oggi h: 01:00 | Sereno | 11 | 10 | 93 | 1018 | 14 | N 3.7 | |
| Oggi h: 00:00 | Sereno | 11 | 10 | 93 | 1018 | 14 | N 3.7 | |
| Ieri h: 23:00 | Sereno | 12 | 11 | 93 | 1018 | 14 | N 0 | |
| Ieri h: 22:00 | Sereno | 13 | 12 | 93 | 1018 | 14 | N 3.7 | |
| Ieri h: 21:00 | Sereno | 14 | 12 | 87 | 1018 | 14 | N 5.5 | |
| Ieri h: 20:00 | Sereno | 15 | 13 | 87 | 1017 | 14 | N 0 | |
| Ieri h: 19:57 | Sereno | 16 | 12 | 77 | 1017 | 13 | N 0 | |
| Ieri h: 19:42 | Foschia | 17 | 13 | 77 | 1017 | 8 | N 0 | |
| Ieri h: 19:00 | Sereno | 19 | 13 | 68 | 1017 | 14 | E 7.4 | |
| Ieri h: 18:00 | Sereno | 21 | 11 | 52 | 1018 | 14 | S/SO 13 | |
| Ieri h: 17:00 | Sereno | 22 | 11 | 49 | 1018 | 14 | S/SO 13 | |
| Ieri h: 16:00 | Sereno | 22 | 11 | 49 | 1018 | 14 | SO 9.3 | |
| Ieri h: 15:00 | Sereno | 22 | 11 | 49 | 1019 | 14 | S/SO 11.1 | |
| Ieri h: 14:00 | Sereno | 21 | 11 | 52 | 1019 | 14 | N 9.3 | |
| Ieri h: 13:00 | Sereno | 21 | 10 | 49 | 1020 | 14 | SO 16.7 | |
| Ieri h: 12:00 | Sereno | 20 | 9 | 49 | 1020 | 14 | S/SO 9.3 | |
| Ieri h: 11:00 | Sereno | 19 | 9 | 52 | 1020 | 14 | N 7.4 | |
| Ieri h: 10:00 | Sereno | 17 | 9 | 59 | 1021 | 14 | N 0 | |
| Ieri h: 09:00 | Sereno | 16 | 11 | 72 | 1021 | 14 | N 7.4 | |
| Ieri h: 08:00 | Sereno | 13 | 11 | 87 | 1020 | 14 | N/NE 7.4 | |
| Ieri h: 07:00 | Sereno | 8 | 7 | 93 | 1020 | 14 | N 0 | |
| Ieri h: 06:00 | Sereno | 6 | 6 | 100 | 1020 | 14 | N 0 | |
| Ieri h: 05:00 | Sereno | 6 | 5 | 93 | 1019 | 14 | N 0 | |
| Ieri h: 04:00 | Sereno | 7 | 7 | 100 | 1019 | 14 | N 0 | |



